Time;durP1;ratioP1;P1;durP2;ratioP2;P2;SDS_P1;SDS_P2;PMS_P1;PMS_P2;Temp;Humidity;BMP_temperature;BMP_pressure;BME280_temperature;BME280_humidity;BME280_pressure;Samples;Min_cycle;Max_cycle;Signal;HPM_P1;HPM_P2
2022/09/21 00:00:29;;;;;;;0.20;0.20;;;5.60;99.90;;;;;;5105135;28;20085;-77
2022/09/21 00:02:56;;;;;;;0.35;0.22;;;5.50;99.90;;;;;;5105691;28;20036;-79
2022/09/21 00:05:23;;;;;;;0.30;0.30;;;5.50;99.90;;;;;;5103452;28;20044;-77
2022/09/21 00:07:48;;;;;;;0.17;0.17;;;5.50;99.90;;;;;;5103213;28;20040;-79
2022/09/21 00:10:15;;;;;;;0.00;0.00;;;5.70;99.90;;;;;;5104547;28;20076;-77
2022/09/21 00:12:41;;;;;;;0.00;0.00;;;5.40;99.90;;;;;;5087549;28;20122;-77
2022/09/21 00:15:09;;;;;;;0.00;0.00;;;5.40;99.90;;;;;;5104727;28;20055;-76
2022/09/21 00:17:36;;;;;;;0.00;0.00;;;5.40;99.90;;;;;;5104917;28;20055;-78
2022/09/21 00:20:04;;;;;;;0.00;0.00;;;5.40;99.90;;;;;;5103408;28;20047;-78
2022/09/21 00:22:31;;;;;;;0.10;0.10;;;5.40;99.90;;;;;;5103718;28;20048;-77
2022/09/21 00:24:56;;;;;;;0.00;0.00;;;5.40;99.90;;;;;;5085767;28;20044;-77
2022/09/21 00:27:28;;;;;;;0.00;0.00;;;5.80;99.90;;;;;;5104606;28;20055;-78
2022/09/21 00:29:55;;;;;;;0.08;0.08;;;5.50;99.90;;;;;;5103843;28;20043;-77
2022/09/21 00:32:22;;;;;;;0.08;0.08;;;5.60;99.90;;;;;;5103878;28;20043;-77
2022/09/21 00:34:48;;;;;;;0.00;0.00;;;5.40;99.90;;;;;;5105016;28;20056;-78
2022/09/21 00:37:14;;;;;;;0.10;0.10;;;5.40;99.90;;;;;;5105150;28;20040;-75
2022/09/21 00:39:39;;;;;;;0.10;0.10;;;5.30;99.90;;;;;;5103896;28;20105;-77
2022/09/21 00:42:22;;;;;;;0.00;0.00;;;5.30;99.90;;;;;;5087130;28;20036;-77
2022/09/21 00:44:48;;;;;;;0.00;0.00;;;5.20;99.90;;;;;;5103484;28;20068;-78
2022/09/21 00:47:16;;;;;;;0.03;0.03;;;5.20;99.90;;;;;;5103570;28;20044;-77
2022/09/21 00:49:48;;;;;;;0.03;0.03;;;5.20;99.90;;;;;;5102550;28;20130;-78
2022/09/21 00:52:15;;;;;;;0.00;0.00;;;5.20;99.90;;;;;;5103009;28;20092;-77
2022/09/21 00:54:49;;;;;;;0.20;0.20;;;5.10;99.90;;;;;;5103064;28;20024;-80
2022/09/21 00:57:19;;;;;;;0.00;0.00;;;5.20;99.90;;;;;;5102399;28;20088;-77
2022/09/21 00:59:45;;;;;;;0.00;0.00;;;5.30;99.90;;;;;;5104071;28;20032;-78
2022/09/21 01:02:11;;;;;;;0.08;0.08;;;5.30;99.90;;;;;;5104771;28;20048;-76
2022/09/21 01:04:38;;;;;;;0.00;0.00;;;5.00;99.90;;;;;;5104252;28;20036;-76
2022/09/21 01:07:10;;;;;;;0.00;0.00;;;5.30;99.90;;;;;;5104148;28;20044;-77
2022/09/21 01:09:36;;;;;;;0.00;0.00;;;5.30;99.90;;;;;;5104316;28;20052;-77
2022/09/21 01:12:22;;;;;;;0.00;0.00;;;5.20;99.90;;;;;;5103118;28;20044;-78
2022/09/21 01:14:48;;;;;;;;;;;5.20;99.90;;;;;;5103268;28;20040;-79
2022/09/21 01:17:17;;;;;;;0.00;0.00;;;5.20;99.90;;;;;;5103531;28;19931;-77
2022/09/21 01:20:12;;;;;;;0.00;0.00;;;5.10;99.90;;;;;;5103291;28;20044;-77
2022/09/21 01:22:46;;;;;;;0.00;0.00;;;5.10;99.90;;;;;;5103286;28;20136;-77
2022/09/21 01:25:23;;;;;;;0.00;0.00;;;5.10;99.90;;;;;;5103610;28;20132;-76
2022/09/21 01:28:00;;;;;;;0.03;0.03;;;5.00;99.90;;;;;;5103146;28;20048;-77
2022/09/21 01:30:29;;;;;;;0.00;0.00;;;5.10;99.90;;;;;;5102224;28;20052;-76
2022/09/21 01:33:03;;;;;;;0.00;0.00;;;5.20;99.90;;;;;;5102306;28;20119;-76
2022/09/21 01:35:35;;;;;;;0.00;0.00;;;5.70;99.90;;;;;;5101747;28;20048;-77
2022/09/21 01:38:13;;;;;;;0.00;0.00;;;4.90;99.90;;;;;;5101245;28;20044;-78
2022/09/21 01:40:46;;;;;;;0.00;0.00;;;4.90;99.90;;;;;;5084621;28;20095;-75
2022/09/21 01:43:18;;;;;;;0.00;0.00;;;4.90;99.90;;;;;;5102313;28;20040;-77
2022/09/21 01:45:50;;;;;;;0.00;0.00;;;4.90;99.90;;;;;;5101973;28;20066;-77
2022/09/21 01:48:19;;;;;;;0.00;0.00;;;4.80;99.90;;;;;;5101486;28;20047;-78
2022/09/21 01:50:51;;;;;;;0.57;0.52;;;4.80;99.90;;;;;;5103715;28;20032;-77
2022/09/21 01:53:32;;;;;;;0.13;0.13;;;4.70;99.90;;;;;;5105615;28;20103;-77
2022/09/21 01:56:26;;;;;;;0.08;0.08;;;4.70;99.90;;;;;;5168377;22;20015;-78
2022/09/21 01:59:31;;;;;;;1.85;0.30;;;4.70;99.90;;;;;;5089251;28;20032;-78
2022/09/21 02:02:03;;;;;;;0.00;0.00;;;4.70;99.90;;;;;;5066088;28;20108;-78
2022/09/21 02:04:29;;;;;;;0.00;0.00;;;4.60;99.90;;;;;;5065963;28;20052;-78
2022/09/21 02:06:55;;;;;;;0.00;0.00;;;5.00;99.90;;;;;;5091819;28;20036;-77
2022/09/21 02:09:23;;;;;;;0.00;0.00;;;4.60;99.90;;;;;;5105695;28;20056;-78
2022/09/21 02:11:48;;;;;;;0.00;0.00;;;4.60;99.90;;;;;;5105298;28;20048;-78
2022/09/21 02:14:18;;;;;;;0.00;0.00;;;4.50;99.90;;;;;;5093289;28;20058;-78
2022/09/21 02:17:18;;;;;;;0.00;0.00;;;4.50;99.90;;;;;;5104412;28;20409;-78
2022/09/21 02:20:04;;;;;;;0.00;0.00;;;4.50;99.90;;;;;;5103909;28;20044;-78
2022/09/21 02:23:06;;;;;;;0.00;0.00;;;4.50;99.90;;;;;;5089964;28;20127;-78
2022/09/21 02:25:44;;;;;;;0.00;0.00;;;4.50;99.90;;;;;;5084703;28;20055;-79
2022/09/21 02:28:40;;;;;;;0.00;0.00;;;4.40;99.90;;;;;;5101133;28;20059;-78
2022/09/21 02:31:29;;;;;;;0.00;0.00;;;4.40;99.90;;;;;;5076820;28;20048;-77
2022/09/21 02:34:12;;;;;;;0.15;0.10;;;4.30;99.90;;;;;;5083417;28;20403;-78
2022/09/21 02:37:14;;;;;;;0.00;0.00;;;4.30;99.90;;;;;;5075485;28;20051;-78
2022/09/21 02:39:54;;;;;;;0.25;0.25;;;4.40;99.90;;;;;;5102237;28;20764;-77
2022/09/21 02:42:26;;;;;;;0.10;0.10;;;4.40;99.90;;;;;;5102492;28;20070;-77
2022/09/21 02:45:07;;;;;;;0.00;0.00;;;4.50;99.90;;;;;;5102436;28;20055;-78
2022/09/21 02:47:41;;;;;;;0.00;0.00;;;4.30;99.90;;;;;;5101679;28;20063;-78
2022/09/21 02:50:14;;;;;;;0.00;0.00;;;4.40;99.90;;;;;;5083118;28;20043;-78
2022/09/21 02:52:42;;;;;;;0.20;0.20;;;4.30;99.90;;;;;;5103076;28;20059;-77
2022/09/21 02:55:09;;;;;;;0.22;0.17;;;4.30;99.90;;;;;;5103981;28;20044;-78
2022/09/21 02:57:36;;;;;;;0.00;0.00;;;4.30;99.90;;;;;;5119355;28;20608;-77
2022/09/21 03:00:04;;;;;;;0.32;0.20;;;4.20;99.90;;;;;;5122251;28;20087;-78
2022/09/21 03:02:40;;;;;;;0.00;0.00;;;4.20;99.90;;;;;;5118529;28;20040;-77
2022/09/21 03:05:07;;;;;;;0.00;0.00;;;4.10;99.90;;;;;;5072833;28;20277;-77
2022/09/21 03:07:33;;;;;;;0.00;0.00;;;4.10;99.90;;;;;;5095258;28;20051;-79
2022/09/21 03:09:59;;;;;;;0.22;0.05;;;4.10;99.90;;;;;;5099481;28;20482;-77
2022/09/21 03:12:25;;;;;;;0.15;0.15;;;4.10;99.90;;;;;;5097426;28;20079;-78
2022/09/21 03:14:52;;;;;;;0.00;0.00;;;4.00;99.90;;;;;;5079451;28;20047;-78
2022/09/21 03:17:18;;;;;;;1.65;0.52;;;4.00;99.90;;;;;;5113204;28;20147;-78
2022/09/21 03:19:44;;;;;;;0.10;0.10;;;3.90;99.90;;;;;;5120408;28;20031;-78
2022/09/21 03:22:09;;;;;;;0.00;0.00;;;4.00;99.90;;;;;;5120512;28;20046;-78
2022/09/21 03:24:44;;;;;;;0.00;0.00;;;4.00;99.90;;;;;;5120330;28;20035;-78
2022/09/21 03:27:13;;;;;;;0.00;0.00;;;4.00;99.90;;;;;;5105705;28;20078;-78
2022/09/21 03:29:39;;;;;;;0.38;0.38;;;3.90;99.90;;;;;;5099991;28;20035;-77
2022/09/21 03:32:05;;;;;;;0.00;0.00;;;3.90;99.90;;;;;;5080865;28;20047;-77
2022/09/21 03:34:33;;;;;;;0.00;0.00;;;3.90;99.90;;;;;;5066865;28;20043;-77
2022/09/21 03:37:00;;;;;;;0.20;0.20;;;3.80;99.90;;;;;;5089392;28;20048;-77
2022/09/21 03:39:25;;;;;;;0.00;0.00;;;3.80;99.90;;;;;;5079597;28;20090;-78
2022/09/21 03:41:54;;;;;;;0.00;0.00;;;3.80;99.90;;;;;;5098020;28;20044;-77
2022/09/21 03:44:20;;;;;;;0.10;0.10;;;3.80;99.90;;;;;;5098857;28;20052;-77
2022/09/21 03:46:46;;;;;;;0.20;0.20;;;3.80;99.90;;;;;;5107441;28;20039;-78
2022/09/21 03:49:11;;;;;;;1.05;0.98;;;3.80;99.90;;;;;;5100615;28;20044;-78
2022/09/21 03:51:38;;;;;;;0.05;0.05;;;3.80;99.90;;;;;;5119981;28;20050;-78
2022/09/21 03:54:04;;;;;;;0.00;0.00;;;3.80;99.90;;;;;;5101066;28;20046;-78
2022/09/21 03:56:30;;;;;;;0.35;0.35;;;3.80;99.90;;;;;;5117702;28;20047;-78
2022/09/21 03:58:55;;;;;;;0.25;0.25;;;3.70;99.90;;;;;;5099084;28;20043;-78
2022/09/21 04:01:21;;;;;;;0.00;0.00;;;3.70;99.90;;;;;;5117576;28;20044;-78
2022/09/21 04:03:47;;;;;;;0.00;0.00;;;3.70;99.90;;;;;;5101185;28;20048;-78
2022/09/21 04:06:13;;;;;;;0.00;0.00;;;3.70;99.90;;;;;;5114859;28;20048;-78
2022/09/21 04:08:40;;;;;;;0.00;0.00;;;3.60;99.90;;;;;;5096970;28;20410;-78
2022/09/21 04:11:13;;;;;;;0.10;0.10;;;3.60;99.90;;;;;;5097194;28;20377;-78
2022/09/21 04:13:41;;;;;;;0.20;0.20;;;3.60;99.90;;;;;;5095514;28;20410;-78
2022/09/21 04:16:08;;;;;;;0.00;0.00;;;4.10;99.90;;;;;;5095003;28;20048;-78
2022/09/21 04:18:35;;;;;;;0.00;0.00;;;3.60;99.90;;;;;;5058206;28;20100;-78
2022/09/21 04:21:00;;;;;;;0.10;0.10;;;3.60;99.90;;;;;;5092934;28;20055;-78
2022/09/21 04:23:26;;;;;;;0.00;0.00;;;3.80;99.90;;;;;;5095312;28;20397;-77
2022/09/21 04:25:53;;;;;;;0.82;0.80;;;3.60;99.90;;;;;;5081068;28;20073;-78
2022/09/21 04:28:19;;;;;;;1.17;0.38;;;3.60;99.90;;;;;;5096599;28;20052;-77
2022/09/21 04:30:45;;;;;;;0.00;0.00;;;3.60;99.90;;;;;;5095958;28;20062;-78
2022/09/21 04:33:11;;;;;;;0.10;0.10;;;3.60;99.90;;;;;;5115404;28;20381;-78
2022/09/21 04:35:37;;;;;;;0.00;0.00;;;3.60;99.90;;;;;;5114860;28;20054;-78
2022/09/21 04:38:03;;;;;;;0.10;0.10;;;3.60;99.90;;;;;;5114878;28;20058;-78
2022/09/21 04:40:29;;;;;;;1.65;1.08;;;3.50;99.90;;;;;;5115398;28;20032;-78
2022/09/21 04:42:55;;;;;;;1.75;0.32;;;3.60;99.90;;;;;;5115019;28;20047;-78
2022/09/21 04:45:22;;;;;;;0.10;0.10;;;3.50;99.90;;;;;;5114774;28;20138;-78
2022/09/21 04:47:47;;;;;;;1.48;0.63;;;3.50;99.90;;;;;;5075793;28;20785;-78
2022/09/21 04:50:14;;;;;;;0.00;0.00;;;3.50;99.90;;;;;;5094369;28;20044;-77
2022/09/21 04:52:40;;;;;;;0.00;0.00;;;3.40;99.90;;;;;;5075565;28;20047;-78
2022/09/21 04:55:06;;;;;;;0.73;0.73;;;3.40;99.90;;;;;;5075289;28;20036;-78
2022/09/21 04:57:32;;;;;;;0.00;0.00;;;3.40;99.90;;;;;;5112019;28;20055;-78
2022/09/21 04:59:58;;;;;;;0.00;0.00;;;3.40;99.90;;;;;;5114410;28;20117;-78
2022/09/21 05:02:23;;;;;;;0.00;0.00;;;3.40;99.90;;;;;;5098012;28;20104;-78
2022/09/21 05:04:49;;;;;;;0.00;0.00;;;3.40;99.90;;;;;;5096815;28;20123;-78
2022/09/21 05:07:18;;;;;;;0.20;0.20;;;3.30;99.90;;;;;;5107395;28;20130;-78
2022/09/21 05:10:02;;;;;;;0.00;0.00;;;3.20;99.90;;;;;;5113458;28;20052;-77
2022/09/21 05:12:28;;;;;;;0.00;0.00;;;3.30;99.90;;;;;;5095578;28;20043;-78
2022/09/21 05:14:54;;;;;;;0.15;0.15;;;3.30;99.90;;;;;;5080494;28;20062;-78
2022/09/21 05:17:21;;;;;;;0.00;0.00;;;3.20;99.90;;;;;;5114316;28;20051;-77
2022/09/21 05:19:48;;;;;;;0.45;0.45;;;3.20;99.90;;;;;;5115343;28;20035;-78
2022/09/21 05:22:13;;;;;;;0.15;0.15;;;3.20;99.90;;;;;;5096879;28;20071;-77
2022/09/21 05:24:39;;;;;;;0.00;0.00;;;3.20;99.90;;;;;;5114357;28;20048;-78
2022/09/21 05:27:05;;;;;;;0.00;0.00;;;3.30;99.90;;;;;;5087646;28;20040;-78
2022/09/21 05:29:30;;;;;;;0.00;0.00;;;3.30;99.90;;;;;;5094702;28;20103;-77
2022/09/21 05:32:12;;;;;;;1.77;0.90;;;3.30;99.90;;;;;;5079492;28;20461;-78
2022/09/21 05:35:03;;;;;;;0.00;0.00;;;3.30;99.90;;;;;;5076092;28;20103;-78
2022/09/21 05:37:35;;;;;;;0.00;0.00;;;3.40;99.90;;;;;;5075063;28;20060;-78
2022/09/21 05:40:01;;;;;;;0.00;0.00;;;3.40;99.90;;;;;;5077931;28;20044;-78
2022/09/21 05:42:27;;;;;;;0.47;0.38;;;3.40;99.90;;;;;;5080519;28;20044;-78
2022/09/21 05:44:54;;;;;;;0.00;0.00;;;3.40;99.90;;;;;;5080481;28;20048;-78
2022/09/21 05:47:49;;;;;;;2.40;0.55;;;3.40;99.90;;;;;;5061913;28;20041;-78
2022/09/21 05:50:26;;;;;;;0.10;0.10;;;3.50;99.90;;;;;;5080089;28;20077;-78
2022/09/21 05:53:07;;;;;;;0.05;0.05;;;3.50;99.90;;;;;;5080827;28;20194;-78
2022/09/21 05:56:02;;;;;;;0.00;0.00;;;3.60;99.90;;;;;;5080205;28;20041;-78
2022/09/21 05:58:46;;;;;;;0.00;0.00;;;3.70;99.90;;;;;;5080543;28;20055;-78
2022/09/21 06:01:37;;;;;;;0.00;0.00;;;3.80;99.90;;;;;;5065403;28;20048;-77
2022/09/21 06:04:03;;;;;;;0.00;0.00;;;3.90;99.90;;;;;;5063646;28;20052;-77
2022/09/21 06:06:28;;;;;;;0.00;0.00;;;3.90;99.90;;;;;;5063988;28;20048;-77
2022/09/21 06:08:54;;;;;;;0.00;0.00;;;4.00;99.90;;;;;;5079878;28;20040;-77
2022/09/21 06:11:20;;;;;;;0.00;0.00;;;4.10;99.90;;;;;;5062505;28;20048;-77
2022/09/21 06:13:45;;;;;;;0.00;0.00;;;4.10;99.90;;;;;;5080427;28;20037;-78
2022/09/21 06:16:11;;;;;;;0.00;0.00;;;4.30;99.90;;;;;;5079757;28;20053;-77
2022/09/21 06:18:38;;;;;;;0.00;0.00;;;4.30;99.90;;;;;;5079654;28;20612;-77
2022/09/21 06:21:05;;;;;;;0.30;0.30;;;4.50;99.90;;;;;;5061712;28;20447;-78
2022/09/21 06:23:32;;;;;;;0.00;0.00;;;4.60;99.90;;;;;;5060948;28;20048;-78
2022/09/21 06:25:57;;;;;;;0.00;0.00;;;4.60;99.90;;;;;;5078548;28;20473;-78
2022/09/21 06:28:23;;;;;;;0.00;0.00;;;4.70;99.90;;;;;;5078091;28;20045;-78
2022/09/21 06:30:54;;;;;;;0.00;0.00;;;4.80;99.90;;;;;;5077212;28;20174;-78
2022/09/21 06:33:22;;;;;;;0.00;0.00;;;5.00;99.90;;;;;;5075337;28;20049;-78
2022/09/21 06:35:59;;;;;;;0.30;0.30;;;5.10;99.90;;;;;;5077576;28;20096;-79
2022/09/21 06:38:26;;;;;;;0.00;0.00;;;5.30;99.90;;;;;;5059112;28;20055;-78
2022/09/21 06:40:52;;;;;;;0.00;0.00;;;5.40;99.90;;;;;;5075826;28;20071;-78
2022/09/21 06:43:18;;;;;;;0.17;0.17;;;5.50;99.90;;;;;;5074877;28;20131;-78
2022/09/21 06:45:52;;;;;;;0.00;0.00;;;5.60;99.90;;;;;;5057289;28;20048;-78
2022/09/21 06:48:18;;;;;;;0.15;0.15;;;5.70;99.90;;;;;;5056769;28;20055;-78
2022/09/21 06:50:43;;;;;;;0.55;0.40;;;5.90;99.90;;;;;;5074758;28;20048;-78
2022/09/21 06:53:09;;;;;;;0.10;0.10;;;6.00;99.90;;;;;;5074191;28;20063;-78
2022/09/21 06:55:34;;;;;;;1.45;0.38;;;6.20;99.90;;;;;;5073264;28;20048;-78
2022/09/21 06:58:02;;;;;;;0.10;0.10;;;6.30;99.90;;;;;;5054672;28;20568;-79
2022/09/21 07:00:31;;;;;;;0.00;0.00;;;6.40;99.90;;;;;;5072566;28;20475;-79
2022/09/21 07:02:58;;;;;;;0.00;0.00;;;6.50;99.90;;;;;;5072791;28;20055;-79
2022/09/21 07:05:24;;;;;;;0.00;0.00;;;6.60;99.90;;;;;;5074853;28;20989;-79
2022/09/21 07:07:49;;;;;;;0.00;0.00;;;6.80;99.90;;;;;;5092561;28;20046;-79
2022/09/21 07:10:16;;;;;;;0.25;0.25;;;6.90;99.90;;;;;;5093178;28;20039;-79
2022/09/21 07:12:43;;;;;;;0.88;0.70;;;7.10;99.90;;;;;;5074413;28;20048;-79
2022/09/21 07:15:09;;;;;;;0.10;0.10;;;7.20;99.90;;;;;;5091670;28;20096;-79
2022/09/21 07:17:37;;;;;;;0.22;0.22;;;7.40;99.90;;;;;;5091234;28;20067;-80
2022/09/21 07:20:04;;;;;;;0.10;0.10;;;7.60;99.90;;;;;;5073024;28;20044;-80
2022/09/21 07:22:31;;;;;;;0.03;0.03;;;7.70;99.90;;;;;;5073489;28;20044;-80
2022/09/21 07:24:57;;;;;;;0.05;0.05;;;7.80;99.90;;;;;;5091360;28;20427;-80
2022/09/21 07:27:28;;;;;;;0.00;0.00;;;7.90;99.90;;;;;;5091645;28;20044;-80
2022/09/21 07:29:54;;;;;;;1.17;0.77;;;8.00;99.90;;;;;;5090893;28;20047;-80
2022/09/21 07:32:20;;;;;;;0.10;0.10;;;8.00;99.90;;;;;;5091328;28;20055;-80
2022/09/21 07:34:46;;;;;;;0.00;0.00;;;8.20;99.90;;;;;;5075055;28;20071;-80
2022/09/21 07:37:13;;;;;;;0.10;0.10;;;8.20;99.90;;;;;;5095577;28;20044;-80
2022/09/21 07:39:38;;;;;;;1.45;0.65;;;8.40;99.90;;;;;;5095832;28;20042;-80
2022/09/21 07:42:05;;;;;;;0.10;0.10;;;8.50;99.90;;;;;;5097041;28;20143;-80
2022/09/21 07:44:31;;;;;;;0.10;0.10;;;8.60;99.90;;;;;;5096980;28;20043;-80
2022/09/21 07:46:57;;;;;;;0.00;0.00;;;8.70;99.90;;;;;;5097160;28;20051;-80
2022/09/21 07:49:22;;;;;;;0.00;0.00;;;8.90;99.90;;;;;;5098987;28;20152;-81
2022/09/21 07:51:48;;;;;;;0.10;0.10;;;9.10;99.90;;;;;;5100892;28;20054;-80
2022/09/21 07:54:14;;;;;;;0.00;0.00;;;9.20;99.90;;;;;;5099288;28;20040;-81
2022/09/21 07:56:41;;;;;;;0.00;0.00;;;9.30;99.90;;;;;;5100670;28;20577;-80
2022/09/21 07:59:07;;;;;;;0.00;0.00;;;9.30;99.90;;;;;;5100111;28;20044;-80
2022/09/21 08:01:40;;;;;;;0.15;0.15;;;9.40;99.90;;;;;;5101350;28;20047;-81
2022/09/21 08:04:08;;;;;;;0.00;0.00;;;9.60;99.90;;;;;;5100618;28;20043;-81
2022/09/21 08:06:38;;;;;;;0.00;0.00;;;9.70;99.90;;;;;;5101472;28;20086;-81
2022/09/21 08:09:05;;;;;;;0.82;0.80;;;9.80;99.90;;;;;;5100851;28;20123;-81
2022/09/21 08:11:32;;;;;;;0.00;0.00;;;9.90;99.90;;;;;;5100938;28;20040;-81
2022/09/21 08:13:59;;;;;;;0.00;0.00;;;10.00;99.90;;;;;;5080278;28;20048;-81
2022/09/21 08:16:27;;;;;;;0.10;0.10;;;10.10;99.90;;;;;;5100053;28;20073;-81
2022/09/21 08:18:53;;;;;;;0.10;0.10;;;10.30;99.90;;;;;;5101109;28;20052;-81
2022/09/21 08:21:19;;;;;;;0.80;0.15;;;10.40;99.90;;;;;;5100470;28;20082;-81
2022/09/21 08:23:47;;;;;;;0.10;0.10;;;10.50;99.90;;;;;;5100473;28;20048;-81
2022/09/21 08:26:17;;;;;;;0.45;0.40;;;10.60;99.90;;;;;;5100157;28;20048;-81
2022/09/21 08:28:47;;;;;;;0.00;0.00;;;10.70;99.90;;;;;;5081578;28;20516;-81
2022/09/21 08:31:14;;;;;;;0.08;0.08;;;10.80;99.90;;;;;;5095191;28;20044;-81
2022/09/21 08:33:40;;;;;;;1.88;1.48;;;11.00;99.90;;;;;;5078384;28;20089;-81
2022/09/21 08:36:07;;;;;;;1.35;0.88;;;11.00;99.90;;;;;;5079932;28;20092;-81
2022/09/21 08:38:35;;;;;;;0.00;0.00;;;11.10;99.90;;;;;;5095830;28;20040;-80
2022/09/21 08:41:19;;;;;;;0.45;0.20;;;11.10;99.90;;;;;;5078566;28;20079;-81
2022/09/21 08:43:54;;;;;;;0.00;0.00;;;11.10;99.90;;;;;;5097946;28;20075;-81
2022/09/21 08:46:23;;;;;;;3.73;0.10;;;11.20;99.90;;;;;;5079045;28;20772;-81
2022/09/21 08:48:52;;;;;;;0.20;0.15;;;11.40;99.90;;;;;;5092556;28;20640;-80
2022/09/21 08:51:22;;;;;;;0.45;0.45;;;11.90;99.90;;;;;;5097248;28;20048;-81
2022/09/21 08:53:50;;;;;;;0.55;0.43;;;12.50;99.90;;;;;;5091602;28;20032;-81
2022/09/21 08:56:16;;;;;;;0.10;0.00;;;13.80;99.90;;;;;;5091510;28;20060;-81
2022/09/21 08:58:42;;;;;;;0.22;0.17;;;13.70;99.90;;;;;;5093368;28;20615;-81
2022/09/21 09:01:23;;;;;;;0.20;0.10;;;14.50;99.90;;;;;;5097518;28;20039;-81
2022/09/21 09:04:16;;;;;;;0.00;0.00;;;14.60;99.90;;;;;;5093685;28;20127;-81
2022/09/21 09:07:10;;;;;;;4.38;0.80;;;15.00;90.30;;;;;;5096195;28;20131;-78
2022/09/21 09:10:13;;;;;;;0.75;0.43;;;15.30;99.90;;;;;;5088741;28;20617;-79
2022/09/21 09:12:45;;;;;;;0.00;0.00;;;15.80;99.90;;;;;;5088101;28;20054;-79
2022/09/21 09:15:20;;;;;;;0.10;0.10;;;16.30;99.90;;;;;;5090837;28;20059;-79
2022/09/21 09:17:53;;;;;;;0.00;0.00;;;16.50;1.00;;;;;;5093413;28;20044;-80
2022/09/21 09:20:55;;;;;;;0.10;0.10;;;16.80;1.00;;;;;;5075471;28;20090;-79
2022/09/21 09:23:25;;;;;;;0.10;0.10;;;16.90;99.90;;;;;;5074018;28;20386;-80
2022/09/21 09:25:57;;;;;;;1.27;0.22;;;16.40;99.90;;;;;;5091512;28;20348;-79
2022/09/21 09:28:48;;;;;;;0.10;0.00;;;16.40;1.00;;;;;;5098598;28;20088;-80
2022/09/21 09:31:34;;;;;;;0.00;0.00;;;17.00;38.40;;;;;;5094061;28;20040;-80
2022/09/21 09:34:23;;;;;;;1.87;0.93;;;17.20;1.00;;;;;;5073434;28;20215;-78
2022/09/21 09:37:14;;;;;;;0.00;0.00;;;17.70;99.90;;;;;;5072411;28;20290;-78
2022/09/21 09:39:41;;;;;;;0.43;0.38;;;18.20;94.90;;;;;;5065334;28;20060;-77
2022/09/21 09:42:22;;;;;;;0.08;0.08;;;18.00;86.30;;;;;;5069249;28;20097;-79
2022/09/21 09:45:02;;;;;;;0.00;0.00;;;18.30;1.00;;;;;;5070283;28;20056;-78
2022/09/21 09:47:59;;;;;;;0.15;0.15;;;18.50;99.90;;;;;;5069941;28;20056;-79
2022/09/21 09:50:38;;;;;;;0.20;0.20;;;18.60;1.00;;;;;;5085305;28;20086;-78
2022/09/21 09:53:10;;;;;;;0.00;0.00;;;18.50;99.90;;;;;;5067659;28;20052;-77
2022/09/21 09:55:49;;;;;;;0.00;0.00;;;18.40;1.00;;;;;;5085724;28;20047;-77
2022/09/21 09:58:21;;;;;;;0.00;0.00;;;18.70;1.00;;;;;;5084701;28;20052;-78
2022/09/21 10:00:52;;;;;;;0.00;0.00;;;19.20;1.00;;;;;;5051769;28;20181;-78
2022/09/21 10:03:25;;;;;;;0.52;0.40;;;19.10;1.00;;;;;;5087464;28;20595;-79
2022/09/21 10:05:51;;;;;;;0.00;0.00;;;19.40;99.90;;;;;;5071434;28;20054;-77
2022/09/21 10:08:35;;;;;;;0.68;0.32;;;18.60;99.90;;;;;;5086715;28;20044;-77
2022/09/21 10:11:02;;;;;;;0.00;0.00;;;19.10;99.90;;;;;;5085936;28;20059;-78
2022/09/21 10:13:36;;;;;;;0.10;0.10;;;18.90;99.90;;;;;;5091794;28;20052;-78
2022/09/21 10:16:22;;;;;;;2.08;0.55;;;18.70;99.90;;;;;;5093130;28;20051;-78
2022/09/21 10:19:00;;;;;;;0.00;0.00;;;18.40;99.90;;;;;;5075495;28;20055;-78
2022/09/21 10:21:35;;;;;;;0.00;0.00;;;18.80;1.00;;;;;;5080206;28;20032;-78
2022/09/21 10:24:06;;;;;;;0.00;0.00;;;19.30;1.00;;;;;;5099505;28;20052;-79
2022/09/21 10:26:43;;;;;;;0.35;0.35;;;19.50;1.00;;;;;;5100563;28;20044;-78
2022/09/21 10:29:17;;;;;;;0.00;0.00;;;19.70;1.00;;;;;;5080972;28;20095;-77
2022/09/21 10:32:12;;;;;;;3.23;0.40;;;19.50;99.90;;;;;;5077081;28;20181;-78
2022/09/21 10:35:18;;;;;;;0.10;0.10;;;19.00;1.00;;;;;;5078096;28;20302;-79
2022/09/21 10:37:52;;;;;;;0.00;0.00;;;18.70;99.90;;;;;;5096013;28;20056;-79
2022/09/21 10:40:21;;;;;;;0.00;0.00;;;18.80;1.00;;;;;;5077037;28;20111;-78
2022/09/21 10:42:55;;;;;;;0.00;0.00;;;19.00;99.90;;;;;;5107067;28;20056;-79
2022/09/21 10:45:29;;;;;;;0.05;0.05;;;18.70;99.90;;;;;;5114187;28;20062;-77
2022/09/21 10:48:15;;;;;;;0.30;0.22;;;18.20;99.90;;;;;;5111673;28;20052;-76
2022/09/21 10:50:48;;;;;;;0.08;0.05;;;17.70;99.90;;;;;;5109286;28;20123;-78
2022/09/21 10:53:35;;;;;;;0.15;0.15;;;17.50;99.90;;;;;;5108006;28;20043;-78
2022/09/21 10:56:07;;;;;;;0.00;0.00;;;17.00;99.90;;;;;;5108526;28;20059;-77
2022/09/21 10:58:34;;;;;;;0.00;0.00;;;17.10;1.00;;;;;;5091836;28;20074;-79
2022/09/21 11:01:12;;;;;;;0.00;0.00;;;17.20;99.90;;;;;;5109041;28;20043;-79
2022/09/21 11:03:54;;;;;;;0.17;0.10;;;17.40;1.00;;;;;;5108757;28;20093;-79
2022/09/21 11:06:22;;;;;;;0.00;0.00;;;17.50;1.00;;;;;;5108530;28;20079;-78
2022/09/21 11:08:54;;;;;;;0.00;0.00;;;17.30;1.00;;;;;;5111581;28;20039;-79
2022/09/21 11:11:56;;;;;;;0.00;0.00;;;17.00;99.90;;;;;;5091078;28;20428;-78
2022/09/21 11:14:31;;;;;;;0.30;0.20;;;16.80;1.00;;;;;;5091315;28;20056;-79
2022/09/21 11:17:02;;;;;;;0.00;0.00;;;17.00;1.00;;;;;;5112122;28;20043;-78
2022/09/21 11:19:38;;;;;;;0.32;0.32;;;17.60;1.00;;;;;;5118286;28;20043;-80
2022/09/21 11:22:10;;;;;;;0.35;0.20;;;18.30;1.00;;;;;;5071520;28;20542;-79
2022/09/21 11:24:36;;;;;;;0.22;0.20;;;19.00;99.90;;;;;;5092925;28;20059;-79
2022/09/21 11:27:32;;;;;;;1.08;0.45;;;19.60;99.90;;;;;;5095816;28;20426;-77
2022/09/21 11:30:14;;;;;;;0.00;0.00;;;20.00;99.90;;;;;;5081818;28;20063;-79
2022/09/21 11:32:58;;;;;;;0.47;0.30;;;20.50;99.90;;;;;;5063332;28;20490;-79
2022/09/21 11:35:51;;;;;;;0.00;0.00;;;20.70;99.90;;;;;;5055103;28;20112;-78
2022/09/21 11:38:35;;;;;;;0.00;0.00;;;20.70;99.90;;;;;;5070108;28;20549;-79
2022/09/21 11:41:20;;;;;;;0.00;0.00;;;20.80;99.90;;;;;;5088904;28;20058;-77
2022/09/21 11:44:24;;;;;;;4.38;0.63;;;20.10;99.90;;;;;;5092375;28;20409;-78
2022/09/21 11:47:02;;;;;;;0.00;0.00;;;20.70;99.90;;;;;;5095765;28;20052;-78
2022/09/21 11:49:33;;;;;;;6.70;0.45;;;21.20;99.90;;;;;;5080788;28;20052;-79
2022/09/21 11:52:13;;;;;;;0.40;0.40;;;21.00;99.90;;;;;;5099875;28;20080;-80
2022/09/21 11:54:50;;;;;;;0.10;0.10;;;21.10;99.90;;;;;;5103811;28;20040;-77
2022/09/21 11:57:23;;;;;;;0.00;0.00;;;21.50;99.90;;;;;;5097266;28;20066;-79
2022/09/21 12:00:14;;;;;;;0.20;0.20;;;21.30;99.90;;;;;;5095664;28;20040;-79
2022/09/21 12:03:34;;;;;;;0.00;0.00;;;21.70;99.90;;;;;;5090056;28;20071;-78
2022/09/21 12:06:00;;;;;;;0.00;0.00;;;21.00;99.90;;;;;;4984390;28;20409;-78
2022/09/21 12:08:44;;;;;;;0.00;0.00;;;20.20;99.90;;;;;;5064012;28;20048;-77
2022/09/21 12:11:36;;;;;;;0.20;0.17;;;19.50;99.90;;;;;;5068744;28;20185;-78
2022/09/21 12:14:21;;;;;;;0.00;0.00;;;19.20;99.90;;;;;;5086136;28;20044;-77
2022/09/21 12:16:54;;;;;;;0.00;0.00;;;18.60;99.90;;;;;;5067247;28;20077;-77
2022/09/21 12:19:51;;;;;;;0.00;0.00;;;19.10;99.90;;;;;;5066779;28;20382;-78
2022/09/21 12:22:42;;;;;;;0.28;0.15;;;19.40;99.90;;;;;;5085797;28;20048;-77
2022/09/21 12:25:37;;;;;;;0.30;0.25;;;18.90;99.90;;;;;;5074162;28;20059;-79
2022/09/21 12:28:29;;;;;;;0.05;0.05;;;18.60;99.90;;;;;;5048588;28;20084;-76
2022/09/21 12:31:05;;;;;;;0.00;0.00;;;18.70;99.90;;;;;;5086685;28;20052;-77
2022/09/21 12:33:58;;;;;;;0.80;0.38;;;19.40;99.90;;;;;;5083259;28;20448;-77
2022/09/21 12:36:36;;;;;;;0.00;0.00;;;19.80;99.90;;;;;;5084000;28;20407;-77
2022/09/21 12:39:22;;;;;;;0.00;0.00;;;19.60;99.90;;;;;;5085123;28;20058;-77
2022/09/21 12:42:32;;;;;;;0.17;0.10;;;19.60;99.90;;;;;;5067323;28;20056;-77
2022/09/21 12:45:22;;;;;;;0.10;0.10;;;20.00;99.90;;;;;;5035263;28;20060;-79
2022/09/21 12:48:06;;;;;;;0.00;0.00;;;20.90;99.90;;;;;;5082868;28;20703;-78
2022/09/21 12:50:43;;;;;;;0.00;0.00;;;21.50;99.90;;;;;;5085506;28;20066;-76
2022/09/21 12:53:23;;;;;;;0.32;0.25;;;22.10;99.90;;;;;;5085694;28;20048;-77
2022/09/21 12:56:11;;;;;;;0.35;0.08;;;22.50;99.90;;;;;;5084793;28;20608;-77
2022/09/21 12:59:01;;;;;;;0.63;0.45;;;23.10;99.90;;;;;;5083989;28;20441;-77
2022/09/21 13:01:33;;;;;;;0.05;0.05;;;23.30;99.90;;;;;;5085194;28;20145;-77
2022/09/21 13:04:21;;;;;;;0.00;0.00;;;23.90;99.90;;;;;;5085280;28;20166;-78
2022/09/21 13:07:05;;;;;;;0.22;0.13;;;24.10;99.90;;;;;;5068532;28;20482;-78
2022/09/21 13:09:31;;;;;;;0.05;0.03;;;24.50;99.90;;;;;;5083242;28;20064;-78
2022/09/21 13:12:07;;;;;;;0.00;0.00;;;24.90;99.90;;;;;;5085917;28;20456;-79
2022/09/21 13:14:35;;;;;;;0.00;0.00;;;25.50;99.90;;;;;;5087749;28;20509;-77
2022/09/21 13:17:04;;;;;;;0.00;0.00;;;25.80;99.90;;;;;;5086157;28;20044;-78
2022/09/21 13:19:34;;;;;;;0.10;0.10;;;25.60;99.90;;;;;;5067828;28;20477;-78
2022/09/21 13:22:25;;;;;;;0.93;0.65;;;25.80;99.90;;;;;;5088848;28;20050;-78
2022/09/21 13:25:28;;;;;;;0.00;0.00;;;26.10;99.90;;;;;;5091315;28;20108;-79
2022/09/21 13:28:19;;;;;;;0.00;0.00;;;25.20;99.90;;;;;;5027002;28;20411;-78